createdAt,value
2018-12-01T00:00:17.791Z,1030.84
2018-12-01T00:01:17.780Z,1030.88
2018-12-01T00:02:17.762Z,1030.9
2018-12-01T00:03:17.745Z,1030.9
2018-12-01T00:04:17.730Z,1030.94
2018-12-01T00:05:17.715Z,1030.94
2018-12-01T00:06:17.700Z,1030.89
2018-12-01T00:07:17.685Z,1030.88
2018-12-01T00:08:17.669Z,1030.83
2018-12-01T00:09:17.654Z,1030.77
2018-12-01T00:10:17.637Z,1030.74
2018-12-01T00:11:17.624Z,1030.7
2018-12-01T00:12:17.607Z,1030.6
2018-12-01T00:13:17.590Z,1030.58
2018-12-01T00:14:17.581Z,1030.59
2018-12-01T00:15:17.562Z,1030.55
2018-12-01T00:16:17.547Z,1030.56
2018-12-01T00:17:17.531Z,1030.52
2018-12-01T00:18:17.521Z,1030.51
2018-12-01T00:19:17.502Z,1030.52
2018-12-01T00:20:17.485Z,1030.54
2018-12-01T00:21:17.470Z,1030.55
2018-12-01T00:22:17.457Z,1030.53
2018-12-01T00:23:17.439Z,1030.51
2018-12-01T00:24:17.422Z,1030.49
2018-12-01T00:25:17.407Z,1030.49
2018-12-01T00:26:17.393Z,1030.51
2018-12-01T00:27:17.380Z,1030.49
2018-12-01T00:28:17.362Z,1030.47
2018-12-01T00:29:17.347Z,1030.47
2018-12-01T00:30:17.336Z,1030.44
2018-12-01T00:31:17.317Z,1030.46
2018-12-01T00:32:17.301Z,1030.41
2018-12-01T00:33:17.286Z,1030.41
2018-12-01T00:34:17.270Z,1030.42
2018-12-01T00:35:17.254Z,1030.47
2018-12-01T00:36:17.239Z,1030.46
2018-12-01T00:37:17.224Z,1030.47
2018-12-01T00:38:17.210Z,1030.47
2018-12-01T00:39:17.194Z,1030.49
2018-12-01T00:40:17.179Z,1030.5
2018-12-01T00:41:17.163Z,1030.52
2018-12-01T00:42:17.148Z,1030.52
2018-12-01T00:43:17.133Z,1030.5
2018-12-01T00:44:17.119Z,1030.48
2018-12-01T00:45:17.104Z,1030.45
2018-12-01T00:46:17.086Z,1030.4
2018-12-01T00:47:17.071Z,1030.36
2018-12-01T00:48:17.061Z,1030.36
2018-12-01T00:49:17.041Z,1030.33
2018-12-01T00:50:17.026Z,1030.3
2018-12-01T00:51:17.012Z,1030.28
2018-12-01T00:52:16.997Z,1030.25
2018-12-01T00:53:16.980Z,1030.25
2018-12-01T00:54:16.966Z,1030.25
2018-12-01T00:55:16.950Z,1030.27
2018-12-01T00:56:16.936Z,1030.3
2018-12-01T00:57:16.919Z,1030.27
2018-12-01T00:58:16.903Z,1030.28
2018-12-01T00:59:16.892Z,1030.27
2018-12-01T01:00:16.874Z,1030.27
2018-12-01T01:01:16.860Z,1030.31
2018-12-01T01:02:16.845Z,1030.3
2018-12-01T01:03:16.831Z,1030.22
2018-12-01T01:04:16.815Z,1030.2
2018-12-01T01:05:16.805Z,1030.24
2018-12-01T01:06:16.784Z,1030.21
2018-12-01T01:07:16.768Z,1030.22
2018-12-01T01:08:16.752Z,1030.17
2018-12-01T01:09:16.738Z,1030.25
2018-12-01T01:10:16.726Z,1030.22
2018-12-01T01:11:16.708Z,1030.24
2018-12-01T01:12:16.694Z,1030.22
2018-12-01T01:13:16.679Z,1030.2
2018-12-01T01:14:16.662Z,1030.2
2018-12-01T01:15:16.645Z,1030.22
2018-12-01T01:16:16.634Z,1030.21
2018-12-01T01:17:16.617Z,1030.22
2018-12-01T01:18:16.603Z,1030.22
2018-12-01T01:19:16.587Z,1030.22
2018-12-01T01:20:16.571Z,1030.27
2018-12-01T01:21:16.557Z,1030.26
2018-12-01T01:22:16.544Z,1030.3
2018-12-01T01:23:16.526Z,1030.32
2018-12-01T01:24:16.511Z,1030.27
2018-12-01T01:25:16.496Z,1030.35
2018-12-01T01:26:16.479Z,1030.32
2018-12-01T01:27:16.468Z,1030.36
2018-12-01T01:28:16.450Z,1030.33
2018-12-01T01:29:16.435Z,1030.39
2018-12-01T01:30:16.420Z,1030.38
2018-12-01T01:31:16.404Z,1030.43
2018-12-01T01:32:16.390Z,1030.39
2018-12-01T01:33:16.372Z,1030.39
2018-12-01T01:34:16.359Z,1030.37
2018-12-01T01:35:16.346Z,1030.36
2018-12-01T01:36:16.330Z,1030.36
2018-12-01T01:37:16.314Z,1030.34
2018-12-01T01:38:16.298Z,1030.31
2018-12-01T01:39:16.282Z,1030.29
2018-12-01T01:40:16.267Z,1030.22
2018-12-01T01:41:16.252Z,1030.15
2018-12-01T01:42:16.238Z,1030.17
2018-12-01T01:43:16.226Z,1030.14
2018-12-01T01:44:16.207Z,1030.19
2018-12-01T01:45:16.191Z,1030.26
2018-12-01T01:46:16.177Z,1030.23
2018-12-01T01:47:16.164Z,1030.27
2018-12-01T01:48:16.146Z,1030.24
2018-12-01T01:49:16.132Z,1030.26
2018-12-01T01:50:16.115Z,1030.2
2018-12-01T01:51:16.103Z,1030.19
2018-12-01T01:52:16.084Z,1030.23
2018-12-01T01:53:16.070Z,1030.21
2018-12-01T01:54:16.057Z,1030.17
2018-12-01T01:55:16.040Z,1030.11
2018-12-01T01:56:16.025Z,1030.09
2018-12-01T01:57:16.010Z,1030.02
2018-12-01T01:58:15.996Z,1029.99
2018-12-01T01:59:15.980Z,1030
2018-12-01T02:00:15.965Z,1029.99
2018-12-01T02:01:15.955Z,1029.98
2018-12-01T02:02:15.934Z,1029.98
2018-12-01T02:03:15.921Z,1030.03
2018-12-01T02:04:15.904Z,1030.04
2018-12-01T02:05:15.889Z,1029.99
2018-12-01T02:06:15.874Z,1029.9
2018-12-01T02:07:15.882Z,1029.91
2018-12-01T02:08:15.845Z,1029.91
2018-12-01T02:09:15.830Z,1029.93
2018-12-01T02:10:15.815Z,1029.9
2018-12-01T02:11:15.800Z,1029.87
2018-12-01T02:12:15.790Z,1029.87
2018-12-01T02:13:15.770Z,1029.92
2018-12-01T02:14:15.756Z,1029.89
2018-12-01T02:15:15.740Z,1029.94
2018-12-01T02:16:15.725Z,1029.97
2018-12-01T02:17:15.709Z,1029.94
2018-12-01T02:18:15.696Z,1029.92
2018-12-01T02:19:15.688Z,1029.88
2018-12-01T02:20:15.666Z,1029.87
2018-12-01T02:21:15.654Z,1029.85
2018-12-01T02:22:15.642Z,1029.87
2018-12-01T02:23:15.620Z,1029.88
2018-12-01T02:24:15.607Z,1029.91
2018-12-01T02:25:15.644Z,1029.85
2018-12-01T02:26:15.575Z,1029.83
2018-12-01T02:27:15.560Z,1029.81
2018-12-01T02:28:15.544Z,1029.81
2018-12-01T02:29:15.529Z,1029.82
2018-12-01T02:30:15.516Z,1029.81
2018-12-01T02:31:15.501Z,1029.8
2018-12-01T02:32:15.486Z,1029.8
2018-12-01T02:33:15.471Z,1029.75
2018-12-01T02:34:15.457Z,1029.77
2018-12-01T02:35:15.444Z,1029.78
2018-12-01T02:36:15.428Z,1029.75
2018-12-01T02:37:15.414Z,1029.82
2018-12-01T02:38:15.398Z,1029.79
2018-12-01T02:39:15.382Z,1029.81
2018-12-01T02:40:15.366Z,1029.8
2018-12-01T02:41:15.355Z,1029.76
2018-12-01T02:42:15.338Z,1029.8
2018-12-01T02:43:15.323Z,1029.83
2018-12-01T02:44:15.308Z,1029.85
2018-12-01T02:45:15.294Z,1029.84
2018-12-01T02:46:15.277Z,1029.9
2018-12-01T02:47:15.261Z,1029.83
2018-12-01T02:48:15.247Z,1029.87
2018-12-01T02:49:15.234Z,1029.85
2018-12-01T02:50:15.221Z,1029.85
2018-12-01T02:51:15.203Z,1029.83
2018-12-01T02:52:15.189Z,1029.77
2018-12-01T02:53:15.181Z,1029.79
2018-12-01T02:54:15.158Z,1029.86
2018-12-01T02:55:15.142Z,1029.8
2018-12-01T02:56:15.129Z,1029.79
2018-12-01T02:57:15.112Z,1029.85
2018-12-01T02:58:15.099Z,1029.86
2018-12-01T02:59:15.086Z,1029.89
2018-12-01T03:00:15.073Z,1029.87
2018-12-01T03:01:15.053Z,1029.86
2018-12-01T03:02:15.039Z,1029.92
2018-12-01T03:03:15.024Z,1029.98
2018-12-01T03:04:15.014Z,1030.02
2018-12-01T03:05:14.994Z,1030.01
2018-12-01T03:06:14.979Z,1030
2018-12-01T03:07:14.963Z,1030
2018-12-01T03:08:14.947Z,1030.01
2018-12-01T03:09:14.933Z,1030.03
2018-12-01T03:10:14.920Z,1030.02
2018-12-01T03:11:14.904Z,1030.04
2018-12-01T03:12:14.888Z,1030.02
2018-12-01T03:13:14.877Z,1030.05
2018-12-01T03:14:14.858Z,1030.06
2018-12-01T03:15:14.844Z,1030.08
2018-12-01T03:16:14.832Z,1030.04
2018-12-01T03:17:14.814Z,1030.01
2018-12-01T03:18:14.823Z,1030
2018-12-01T03:19:14.782Z,1030.01
2018-12-01T03:20:14.767Z,1030.03
2018-12-01T03:21:14.753Z,1030.01
2018-12-01T03:22:14.739Z,1030.04
2018-12-01T03:23:14.724Z,1030.01
2018-12-01T03:24:14.709Z,1030.02
2018-12-01T03:25:14.696Z,1029.97
2018-12-01T03:26:14.679Z,1030.01
2018-12-01T03:27:14.663Z,1030
2018-12-01T03:28:14.652Z,1029.96
2018-12-01T03:29:14.635Z,1029.97
2018-12-01T03:30:14.619Z,1029.93
2018-12-01T03:31:14.606Z,1030.01
2018-12-01T03:32:14.593Z,1030.04
2018-12-01T03:33:14.574Z,1030.07
2018-12-01T03:34:14.560Z,1030.09
2018-12-01T03:35:14.546Z,1030.09
2018-12-01T03:36:14.531Z,1029.99
2018-12-01T03:37:14.516Z,1029.96
2018-12-01T03:38:14.501Z,1029.9
2018-12-01T03:39:14.488Z,1029.92
2018-12-01T03:40:14.472Z,1029.89
2018-12-01T03:41:14.456Z,1029.91
2018-12-01T03:42:14.443Z,1029.92
2018-12-01T03:43:14.426Z,1029.85
2018-12-01T03:44:14.411Z,1029.85
2018-12-01T03:45:14.399Z,1029.83
2018-12-01T03:46:14.382Z,1029.85
2018-12-01T03:47:14.367Z,1029.87
2018-12-01T03:48:14.354Z,1029.86
2018-12-01T03:49:14.338Z,1029.86
2018-12-01T03:50:14.324Z,1029.88
2018-12-01T03:51:14.306Z,1029.84
2018-12-01T03:52:14.291Z,1029.87
2018-12-01T03:53:14.278Z,1029.83
2018-12-01T03:54:14.263Z,1029.79
2018-12-01T03:55:14.248Z,1029.83
2018-12-01T03:56:14.232Z,1029.82
2018-12-01T03:57:14.218Z,1029.85
2018-12-01T03:58:14.204Z,1029.8
2018-12-01T03:59:14.190Z,1029.77
2018-12-01T04:00:14.175Z,1029.76
2018-12-01T04:01:14.160Z,1029.72
2018-12-01T04:02:14.144Z,1029.75
2018-12-01T04:03:14.133Z,1029.74
2018-12-01T04:04:14.114Z,1029.73
2018-12-01T04:05:14.099Z,1029.75
2018-12-01T04:06:14.086Z,1029.81
2018-12-01T04:07:14.070Z,1029.84
2018-12-01T04:08:14.057Z,1029.83
2018-12-01T04:09:14.040Z,1029.82
2018-12-01T04:10:14.029Z,1029.84
2018-12-01T04:11:14.013Z,1029.84
2018-12-01T04:12:14.001Z,1029.83
2018-12-01T04:13:13.984Z,1029.78
2018-12-01T04:14:13.968Z,1029.75
2018-12-01T04:15:13.953Z,1029.77
2018-12-01T04:16:13.939Z,1029.84
2018-12-01T04:17:13.925Z,1029.84
2018-12-01T04:18:13.910Z,1029.88
2018-12-01T04:19:13.895Z,1029.81
2018-12-01T04:20:13.881Z,1029.78
2018-12-01T04:21:13.864Z,1029.75
2018-12-01T04:22:13.851Z,1029.76
2018-12-01T04:23:13.837Z,1029.83
2018-12-01T04:24:13.822Z,1029.88
2018-12-01T04:25:13.807Z,1029.87
2018-12-01T04:26:13.792Z,1029.82
2018-12-01T04:27:13.777Z,1029.87
2018-12-01T04:28:13.763Z,1029.87
2018-12-01T04:29:13.747Z,1029.83
2018-12-01T04:30:13.735Z,1029.79
2018-12-01T04:31:13.721Z,1029.75
2018-12-01T04:32:13.705Z,1029.74
2018-12-01T04:33:13.690Z,1029.67
2018-12-01T04:34:13.675Z,1029.66
2018-12-01T04:35:13.664Z,1029.69
2018-12-01T04:36:13.646Z,1029.75
2018-12-01T04:37:13.631Z,1029.78
2018-12-01T04:38:13.618Z,1029.87
2018-12-01T04:39:13.605Z,1029.9
2018-12-01T04:40:13.590Z,1029.89
2018-12-01T04:41:13.573Z,1029.93
2018-12-01T04:42:13.559Z,1029.96
2018-12-01T04:43:13.543Z,1029.92
2018-12-01T04:44:13.530Z,1029.88
2018-12-01T04:45:13.515Z,1029.87
2018-12-01T04:46:13.499Z,1029.87
2018-12-01T04:47:13.484Z,1029.88
2018-12-01T04:48:13.470Z,1029.95
2018-12-01T04:49:13.456Z,1029.98
2018-12-01T04:50:13.443Z,1030.01
2018-12-01T04:51:13.427Z,1030.01
2018-12-01T04:52:13.413Z,1029.98
2018-12-01T04:53:13.398Z,1029.98
2018-12-01T04:54:13.383Z,1030.06
2018-12-01T04:55:13.376Z,1030.1
2018-12-01T04:56:13.354Z,1030.08
2018-12-01T04:57:13.340Z,1030.04
2018-12-01T04:58:13.324Z,1030.03
2018-12-01T04:59:13.309Z,1030.04
2018-12-01T05:00:13.301Z,1030.06
2018-12-01T05:01:13.281Z,1030.1
2018-12-01T05:02:13.267Z,1030.18
2018-12-01T05:03:13.252Z,1030.12
2018-12-01T05:04:13.238Z,1030.13
2018-12-01T05:05:13.223Z,1030.09
2018-12-01T05:06:13.208Z,1030.08
2018-12-01T05:07:13.194Z,1030.08
2018-12-01T05:08:13.181Z,1030.06
2018-12-01T05:09:13.163Z,1030.06
2018-12-01T05:10:13.148Z,1030
2018-12-01T05:11:13.135Z,1029.96
2018-12-01T05:12:13.121Z,1029.96
2018-12-01T05:13:13.104Z,1030.01
2018-12-01T05:14:13.092Z,1030.05
2018-12-01T05:15:13.077Z,1030.08
2018-12-01T05:16:13.065Z,1030.11
2018-12-01T05:17:13.048Z,1030.08
2018-12-01T05:18:13.031Z,1030.11
2018-12-01T05:19:13.017Z,1030.13
2018-12-01T05:20:13.002Z,1030.12
2018-12-01T05:21:12.987Z,1030.11
2018-12-01T05:22:12.974Z,1030.09
2018-12-01T05:23:12.960Z,1030.06
2018-12-01T05:24:12.946Z,1030.05
2018-12-01T05:25:12.931Z,1030.09
2018-12-01T05:26:12.916Z,1030.02
2018-12-01T05:27:12.901Z,1030.03
2018-12-01T05:28:12.887Z,1029.99
2018-12-01T05:29:12.872Z,1030.02
2018-12-01T05:30:12.856Z,1030
2018-12-01T05:31:12.842Z,1029.99
2018-12-01T05:32:12.827Z,1030.02
2018-12-01T05:33:12.813Z,1030.02
2018-12-01T05:34:12.799Z,1030.02
2018-12-01T05:35:12.787Z,1030.05
2018-12-01T05:36:12.768Z,1030.05
2018-12-01T05:37:12.754Z,1030.05
2018-12-01T05:38:12.740Z,1030.07
2018-12-01T05:39:12.729Z,1029.98
2018-12-01T05:40:12.712Z,1030.01
2018-12-01T05:41:12.697Z,1030.01
2018-12-01T05:42:12.680Z,1029.99
2018-12-01T05:43:12.666Z,1030
2018-12-01T05:44:12.652Z,1029.97
2018-12-01T05:45:12.638Z,1029.96
2018-12-01T05:46:12.624Z,1029.95
2018-12-01T05:47:12.610Z,1030.03
2018-12-01T05:48:12.596Z,1030.1
2018-12-01T05:49:12.579Z,1030.12
2018-12-01T05:50:12.567Z,1030.11
2018-12-01T05:51:12.552Z,1030.11
2018-12-01T05:52:12.539Z,1030.11
2018-12-01T05:53:12.522Z,1030.13
2018-12-01T05:54:12.507Z,1030.13
2018-12-01T05:55:12.496Z,1030.15
2018-12-01T05:56:12.478Z,1030.22
2018-12-01T05:57:12.464Z,1030.19
2018-12-01T05:58:12.450Z,1030.14
2018-12-01T05:59:12.437Z,1030.1
2018-12-01T06:00:12.422Z,1030.07
2018-12-01T06:01:12.404Z,1030.1
2018-12-01T06:02:12.390Z,1030.09
2018-12-01T06:03:12.377Z,1030.02
2018-12-01T06:04:12.362Z,1029.98
2018-12-01T06:05:12.347Z,1029.96
2018-12-01T06:06:12.331Z,1029.99
2018-12-01T06:07:12.318Z,1030.01
2018-12-01T06:08:12.302Z,1030.04
2018-12-01T06:09:12.288Z,1030.05
2018-12-01T06:10:12.277Z,1030.02
2018-12-01T06:11:12.259Z,1030.01
2018-12-01T06:12:12.244Z,1030.07
2018-12-01T06:13:12.230Z,1030.05
2018-12-01T06:14:12.215Z,1030.08
2018-12-01T06:15:12.199Z,1030.02
2018-12-01T06:16:12.187Z,1029.98
2018-12-01T06:17:12.170Z,1030.02
2018-12-01T06:18:12.156Z,1030.06
2018-12-01T06:19:12.141Z,1030.06
2018-12-01T06:20:12.129Z,1030.09
2018-12-01T06:21:12.113Z,1030.1
2018-12-01T06:22:12.097Z,1030.07
2018-12-01T06:23:12.081Z,1030.11
2018-12-01T06:24:12.067Z,1030.13
2018-12-01T06:25:12.053Z,1030.16
2018-12-01T06:26:12.038Z,1030.11
2018-12-01T06:27:12.023Z,1030.12
2018-12-01T06:28:12.009Z,1030.13
2018-12-01T06:29:11.993Z,1030.13
2018-12-01T06:30:11.980Z,1030.12
2018-12-01T06:31:11.966Z,1030.11
2018-12-01T06:32:11.952Z,1030.12
2018-12-01T06:33:11.936Z,1030.08
2018-12-01T06:34:11.921Z,1030.07
2018-12-01T06:35:11.907Z,1030.12
2018-12-01T06:36:11.892Z,1030.09
2018-12-01T06:37:11.877Z,1030.12
2018-12-01T06:38:11.864Z,1030.11
2018-12-01T06:39:11.849Z,1030.11
2018-12-01T06:40:12.101Z,1030.12
2018-12-01T06:41:11.825Z,1030.16
2018-12-01T06:42:11.806Z,1030.19
2018-12-01T06:43:11.791Z,1030.2
2018-12-01T06:44:11.776Z,1030.22
2018-12-01T06:45:11.761Z,1030.19
2018-12-01T06:46:11.746Z,1030.18
2018-12-01T06:47:11.731Z,1030.16
2018-12-01T06:48:11.716Z,1030.14
2018-12-01T06:49:11.703Z,1030.12
2018-12-01T06:50:11.689Z,1030.17
2018-12-01T06:51:11.672Z,1030.18
2018-12-01T06:52:11.658Z,1030.19
2018-12-01T06:53:11.643Z,1030.14
2018-12-01T06:54:11.630Z,1030.12
2018-12-01T06:55:11.615Z,1030.1
2018-12-01T06:56:11.601Z,1030.05
2018-12-01T06:57:11.587Z,1030.03
2018-12-01T06:58:11.571Z,1030.03
2018-12-01T06:59:11.557Z,1030.02
2018-12-01T07:00:11.542Z,1030.02
2018-12-01T07:01:11.527Z,1030.04
2018-12-01T07:02:11.512Z,1030.08
2018-12-01T07:03:11.498Z,1030.08
2018-12-01T07:04:11.484Z,1030.13
2018-12-01T07:05:11.470Z,1030.1
2018-12-01T07:06:11.455Z,1030.05
2018-12-01T07:07:11.445Z,1030.03
2018-12-01T07:08:11.427Z,1029.96
2018-12-01T07:09:11.416Z,1029.97
2018-12-01T07:10:11.396Z,1029.99
2018-12-01T07:11:11.381Z,1029.98
2018-12-01T07:12:11.368Z,1030.03
2018-12-01T07:13:11.353Z,1030.05
2018-12-01T07:14:11.338Z,1030.06
2018-12-01T07:15:11.324Z,1030.01
2018-12-01T07:16:11.310Z,1029.96
2018-12-01T07:17:11.305Z,1029.86
2018-12-01T07:18:11.283Z,1029.86
2018-12-01T07:19:11.267Z,1029.81
2018-12-01T07:20:11.252Z,1029.8
2018-12-01T07:21:11.238Z,1029.83
2018-12-01T07:22:11.223Z,1029.78
2018-12-01T07:23:11.209Z,1029.77
2018-12-01T07:24:11.194Z,1029.76
2018-12-01T07:25:11.180Z,1029.78
2018-12-01T07:26:11.167Z,1029.7
2018-12-01T07:27:11.154Z,1029.74
2018-12-01T07:28:11.150Z,1029.71
2018-12-01T07:29:11.125Z,1029.67
2018-12-01T07:30:11.109Z,1029.66
2018-12-01T07:31:11.104Z,1029.62
2018-12-01T07:32:11.082Z,1029.59
2018-12-01T07:33:11.069Z,1029.61
2018-12-01T07:34:11.055Z,1029.69
2018-12-01T07:35:11.039Z,1029.64
2018-12-01T07:36:11.025Z,1029.59
2018-12-01T07:37:11.011Z,1029.6
2018-12-01T07:38:10.999Z,1029.58
2018-12-01T07:39:10.984Z,1029.59
2018-12-01T07:40:10.973Z,1029.51
2018-12-01T07:41:10.957Z,1029.5
2018-12-01T07:42:10.941Z,1029.5
2018-12-01T07:43:10.928Z,1029.5
2018-12-01T07:44:10.917Z,1029.46
2018-12-01T07:45:10.903Z,1029.45
2018-12-01T07:46:10.889Z,1029.49
2018-12-01T07:47:10.873Z,1029.45
2018-12-01T07:48:10.859Z,1029.43
2018-12-01T07:49:10.846Z,1029.44
2018-12-01T07:50:10.834Z,1029.42
2018-12-01T07:51:10.819Z,1029.34
2018-12-01T07:52:10.806Z,1029.35
2018-12-01T07:53:10.792Z,1029.34
2018-12-01T07:54:10.778Z,1029.32
2018-12-01T07:55:10.764Z,1029.33
2018-12-01T07:56:10.750Z,1029.32
2018-12-01T07:57:10.736Z,1029.31
2018-12-01T07:58:10.724Z,1029.27
2018-12-01T07:59:10.710Z,1029.25
2018-12-01T08:00:10.697Z,1029.31
2018-12-01T08:01:10.683Z,1029.29
2018-12-01T08:02:10.669Z,1029.28
2018-12-01T08:03:10.657Z,1029.28
2018-12-01T08:04:10.642Z,1029.26
2018-12-01T08:05:10.628Z,1029.3
2018-12-01T08:06:10.625Z,1029.32
2018-12-01T08:07:10.603Z,1029.4
2018-12-01T08:08:10.589Z,1029.42
2018-12-01T08:09:10.575Z,1029.49
2018-12-01T08:10:10.563Z,1029.47
2018-12-01T08:11:10.549Z,1029.46
2018-12-01T08:12:10.536Z,1029.44
2018-12-01T08:13:10.523Z,1029.43
2018-12-01T08:14:10.508Z,1029.48
2018-12-01T08:15:10.494Z,1029.4
2018-12-01T08:16:10.481Z,1029.39
2018-12-01T08:17:10.468Z,1029.4
2018-12-01T08:18:10.455Z,1029.4
2018-12-01T08:19:10.442Z,1029.37
2018-12-01T08:20:10.429Z,1029.32
2018-12-01T08:21:10.416Z,1029.36
2018-12-01T08:22:10.403Z,1029.33
2018-12-01T08:23:10.388Z,1029.34
2018-12-01T08:24:10.376Z,1029.35
2018-12-01T08:25:10.362Z,1029.36
2018-12-01T08:26:10.347Z,1029.38
2018-12-01T08:27:10.334Z,1029.34
2018-12-01T08:28:10.322Z,1029.33
2018-12-01T08:29:10.309Z,1029.29
2018-12-01T08:30:10.296Z,1029.22
2018-12-01T08:31:10.283Z,1029.19
2018-12-01T08:32:10.269Z,1029.16
2018-12-01T08:33:10.257Z,1029.16
2018-12-01T08:34:10.242Z,1029.14
2018-12-01T08:35:10.230Z,1029.09
2018-12-01T08:36:10.217Z,1029.09
2018-12-01T08:37:10.231Z,1029.06
2018-12-01T08:38:10.192Z,1029.05
2018-12-01T08:39:10.177Z,1029.05
2018-12-01T08:40:10.164Z,1029.05
2018-12-01T08:41:10.150Z,1029.02
2018-12-01T08:42:10.139Z,1029.03
2018-12-01T08:43:10.126Z,1028.99
2018-12-01T08:44:10.113Z,1028.93
2018-12-01T08:45:10.100Z,1028.87
2018-12-01T08:46:10.087Z,1028.84
2018-12-01T08:47:10.078Z,1028.77
2018-12-01T08:48:10.060Z,1028.8
2018-12-01T08:49:10.048Z,1028.77
2018-12-01T08:50:10.035Z,1028.73
2018-12-01T08:51:10.022Z,1028.73
2018-12-01T08:52:10.008Z,1028.67
2018-12-01T08:53:09.995Z,1028.65
2018-12-01T08:54:09.985Z,1028.6
2018-12-01T08:55:09.972Z,1028.55
2018-12-01T08:56:09.961Z,1028.5
2018-12-01T08:57:09.948Z,1028.49
2018-12-01T08:58:09.934Z,1028.48
2018-12-01T08:59:09.923Z,1028.49
2018-12-01T09:00:09.910Z,1028.51
2018-12-01T09:01:09.900Z,1028.49
2018-12-01T09:02:09.884Z,1028.54
2018-12-01T09:03:09.871Z,1028.52
2018-12-01T09:04:09.859Z,1028.53
2018-12-01T09:05:09.847Z,1028.56
2018-12-01T09:06:09.835Z,1028.57
2018-12-01T09:07:09.823Z,1028.53
2018-12-01T09:08:09.811Z,1028.54
2018-12-01T09:09:09.802Z,1028.58
2018-12-01T09:10:09.785Z,1028.61
2018-12-01T09:11:09.773Z,1028.63
2018-12-01T09:12:09.761Z,1028.56
2018-12-01T09:13:09.750Z,1028.53
2018-12-01T09:14:09.736Z,1028.49
2018-12-01T09:15:09.726Z,1028.48
2018-12-01T09:16:09.719Z,1028.45
2018-12-01T09:17:09.699Z,1028.45
2018-12-01T09:18:09.689Z,1028.43
2018-12-01T09:19:09.677Z,1028.44
2018-12-01T09:20:09.666Z,1028.42
2018-12-01T09:21:09.653Z,1028.43
2018-12-01T09:22:09.639Z,1028.44
2018-12-01T09:23:09.628Z,1028.46
2018-12-01T09:24:09.616Z,1028.46
2018-12-01T09:25:09.603Z,1028.43
2018-12-01T09:26:09.592Z,1028.43
2018-12-01T09:27:09.580Z,1028.42
2018-12-01T09:28:09.568Z,1028.38
2018-12-01T09:29:09.555Z,1028.38
2018-12-01T09:30:09.545Z,1028.32
2018-12-01T09:31:09.534Z,1028.26
2018-12-01T09:32:09.521Z,1028.26
2018-12-01T09:33:09.510Z,1028.16
2018-12-01T09:34:09.497Z,1028.12
2018-12-01T09:35:09.486Z,1028.09
2018-12-01T09:36:09.473Z,1028.01
2018-12-01T09:37:09.462Z,1028.04
2018-12-01T09:38:09.452Z,1028.04
2018-12-01T09:39:09.439Z,1028.01
2018-12-01T09:40:09.428Z,1028.05
2018-12-01T09:41:09.417Z,1028.06
2018-12-01T09:42:09.406Z,1028.05
2018-12-01T09:43:09.392Z,1028.09
2018-12-01T09:44:09.381Z,1028.1
2018-12-01T09:45:09.372Z,1028.11
2018-12-01T09:46:09.360Z,1028.1
2018-12-01T09:47:09.348Z,1028.1
2018-12-01T09:48:09.337Z,1028.07
2018-12-01T09:49:09.325Z,1028.05
2018-12-01T09:50:09.312Z,1028
2018-12-01T09:51:09.302Z,1028
2018-12-01T09:52:09.291Z,1027.99
2018-12-01T09:53:09.282Z,1028.03
2018-12-01T09:54:09.268Z,1027.92
2018-12-01T09:55:09.256Z,1027.87
2018-12-01T09:56:09.247Z,1027.84
2018-12-01T09:57:09.235Z,1027.87
2018-12-01T09:58:09.224Z,1027.8
2018-12-01T09:59:09.213Z,1027.79
2018-12-01T10:00:09.203Z,1027.72
2018-12-01T10:01:09.191Z,1027.67
2018-12-01T10:02:09.179Z,1027.62
2018-12-01T10:03:09.168Z,1027.59
2018-12-01T10:04:09.158Z,1027.58
2018-12-01T10:05:09.161Z,1027.57
2018-12-01T10:06:09.134Z,1027.51
2018-12-01T10:07:09.126Z,1027.49
2018-12-01T10:08:09.114Z,1027.46
2018-12-01T10:09:09.103Z,1027.46
2018-12-01T10:10:09.092Z,1027.42
2018-12-01T10:11:09.082Z,1027.45
2018-12-01T10:12:09.070Z,1027.47
2018-12-01T10:13:09.062Z,1027.46
2018-12-01T10:14:09.052Z,1027.41
2018-12-01T10:15:09.038Z,1027.39
2018-12-01T10:16:09.028Z,1027.44
2018-12-01T10:17:09.018Z,1027.38
2018-12-01T10:18:09.005Z,1027.4
2018-12-01T10:19:10.055Z,1027.42
2018-12-01T10:20:08.984Z,1027.46
2018-12-01T10:21:08.973Z,1027.51
2018-12-01T10:22:08.963Z,1027.56
2018-12-01T10:23:08.951Z,1027.59
2018-12-01T10:24:08.943Z,1027.65
2018-12-01T10:25:08.930Z,1027.69
2018-12-01T10:26:08.920Z,1027.69
2018-12-01T10:27:08.907Z,1027.65
2018-12-01T10:28:08.896Z,1027.64
2018-12-01T10:29:08.885Z,1027.58
2018-12-01T10:30:08.875Z,1027.57
2018-12-01T10:31:08.865Z,1027.52
2018-12-01T10:32:08.854Z,1027.5
2018-12-01T10:33:08.843Z,1027.46
2018-12-01T10:34:08.836Z,1027.41
2018-12-01T10:35:08.822Z,1027.38
2018-12-01T10:36:08.812Z,1027.35
2018-12-01T10:37:08.800Z,1027.29
2018-12-01T10:38:08.788Z,1027.25
2018-12-01T10:39:08.779Z,1027.2
2018-12-01T10:40:08.766Z,1027.18
2018-12-01T10:41:08.755Z,1027.12
2018-12-01T10:42:08.745Z,1027.08
2018-12-01T10:43:08.735Z,1027.01
2018-12-01T10:44:08.723Z,1027
2018-12-01T10:45:08.711Z,1026.95
2018-12-01T10:46:08.702Z,1027.01
2018-12-01T10:47:08.691Z,1027
2018-12-01T10:48:08.721Z,1027
2018-12-01T10:49:08.670Z,1027.01
2018-12-01T10:50:08.658Z,1026.97
2018-12-01T10:51:08.649Z,1026.91
2018-12-01T10:52:08.637Z,1026.91
2018-12-01T10:53:08.628Z,1026.84
2018-12-01T10:54:08.617Z,1026.77
2018-12-01T10:55:08.607Z,1026.71
2018-12-01T10:56:08.594Z,1026.66
2018-12-01T10:57:08.584Z,1026.6
2018-12-01T10:58:08.575Z,1026.55
2018-12-01T10:59:08.567Z,1026.54
2018-12-01T11:00:08.554Z,1026.49
2018-12-01T11:01:08.545Z,1026.45
2018-12-01T11:02:08.533Z,1026.4
2018-12-01T11:03:08.522Z,1026.38
2018-12-01T11:04:08.513Z,1026.35
2018-12-01T11:05:08.503Z,1026.32
2018-12-01T11:06:08.494Z,1026.35
2018-12-01T11:07:08.483Z,1026.35
2018-12-01T11:08:08.473Z,1026.32
2018-12-01T11:09:08.462Z,1026.28
2018-12-01T11:10:08.455Z,1026.23
2018-12-01T11:11:08.444Z,1026.25
2018-12-01T11:12:08.435Z,1026.24
2018-12-01T11:13:08.425Z,1026.24
2018-12-01T11:14:08.413Z,1026.27
2018-12-01T11:15:08.403Z,1026.3
2018-12-01T11:16:08.397Z,1026.35
2018-12-01T11:17:08.384Z,1026.32
2018-12-01T11:18:08.376Z,1026.4
2018-12-01T11:19:08.366Z,1026.39
2018-12-01T11:20:08.358Z,1026.38
2018-12-01T11:21:08.347Z,1026.39
2018-12-01T11:22:08.337Z,1026.43
2018-12-01T11:23:08.331Z,1026.44
2018-12-01T11:24:08.324Z,1026.44
2018-12-01T11:25:08.307Z,1026.44
2018-12-01T11:26:08.298Z,1026.44
2018-12-01T11:27:08.288Z,1026.44
2018-12-01T11:28:08.280Z,1026.38
2018-12-01T11:29:08.269Z,1026.44
2018-12-01T11:30:08.258Z,1026.41
2018-12-01T11:31:08.248Z,1026.42
2018-12-01T11:32:08.239Z,1026.39
2018-12-01T11:33:08.229Z,1026.38
2018-12-01T11:34:08.219Z,1026.38
2018-12-01T11:35:08.209Z,1026.37
2018-12-01T11:36:08.199Z,1026.38
2018-12-01T11:37:08.189Z,1026.35
2018-12-01T11:38:08.186Z,1026.33
2018-12-01T11:39:08.172Z,1026.31
2018-12-01T11:40:08.161Z,1026.32
2018-12-01T11:41:08.152Z,1026.3
2018-12-01T11:42:08.141Z,1026.29
2018-12-01T11:43:08.132Z,1026.3
2018-12-01T11:44:08.122Z,1026.25
2018-12-01T11:45:08.112Z,1026.2
2018-12-01T11:46:08.106Z,1026.15
2018-12-01T11:47:08.093Z,1026.18
2018-12-01T11:48:08.083Z,1026.18
2018-12-01T11:49:08.076Z,1026.13
2018-12-01T11:50:08.066Z,1026.16
2018-12-01T11:51:08.056Z,1026.16
2018-12-01T11:52:08.048Z,1026.21
2018-12-01T11:53:08.038Z,1026.23
2018-12-01T11:54:08.028Z,1026.24
2018-12-01T11:55:08.017Z,1026.23
2018-12-01T11:56:08.008Z,1026.23
2018-12-01T11:57:07.999Z,1026.19
2018-12-01T11:58:07.990Z,1026.25
2018-12-01T11:59:07.981Z,1026.23
2018-12-01T12:00:07.971Z,1026.25
2018-12-01T12:01:07.962Z,1026.27
2018-12-01T12:02:07.952Z,1026.29
2018-12-01T12:03:07.945Z,1026.32
2018-12-01T12:04:07.934Z,1026.35
2018-12-01T12:05:07.928Z,1026.37
2018-12-01T12:06:07.916Z,1026.35
2018-12-01T12:07:07.905Z,1026.37
2018-12-01T12:08:07.896Z,1026.37